3ª EdiçãoTrail Colcurinho - Trail Curto

21 de Outubro, 2018
https://werun.pt/resultados/trail-curto-colcurinho/
Pos.DorsalNomeTempo BrutoTempo LíquidoEscalãoEquipaPos. Escalão
1563FILIPE COELHO01:04:0301:03:55M2339TARTARUGAS RUNNERS1
2543JOÃO SANTOS01:06:2201:06:12M4044TURRES TRAIL TEAM1
3577FABIO CRUZ01:09:3901:09:39M2339CAOH2
4573JOSE PEDRO ROSA01:12:0101:11:53M4044CLUBE DESPORTIVO EM MOVIMENTO2
5538TELMO SANTOS01:12:0201:12:02M2339INDIVIDUAL3
6569VASCO TAVARES01:12:1201:12:01M4044VT.RUNNING3
7521ANTÓNIO GONÇALVES01:13:0701:13:01M2339ESGRAVULHAS TEAM4
8562PAULO OLIVEIRA01:13:4701:13:40M2339Tartarugas Runners5
9508RUI ISENTO01:15:1201:15:00M2339ADM Trail Team6
10522DIOGO FIGUEIREDO01:21:3401:21:28M2339ESGRAVULHAS TEAM7
11572TIAGO FONSECA01:22:2901:22:29M2339IDIVIDUAL8
12534RUI NUNES01:22:3301:22:18M2339WERUN9
13550ANTÓNIO OLIVEIRA01:23:1001:23:04M2339Tartarugas Runners10
14575FILIPE SARAIVA01:23:3201:23:21M0022ADM TRAILTEAM1
15566LODEWIKUS HANEKOM01:24:0601:23:58M5559INDIVIDUAL1
16514MARCO ALBERTO DE JESUS PEREIRA01:25:5601:25:44M2339Malhada chã11
17518JOSÉ MANUEL NUNES01:26:4501:26:35M233912
18548PAULO MONTEIRO01:28:1301:28:00M2339C. B. Viseu Running Team13
19561LUIS MENDES01:29:0401:29:00M2339tombaminis trail team14
20568SANDRA GARRIDO01:29:1101:29:06F2339tombaminis trail team1
21525MÁRIO RUI SANTOS01:30:5401:30:54M5559CAOH2
22578HENRIKAS RUDELIS01:32:2401:32:06M40444
23528BRAZ MORAES MUNHOZ01:33:3901:33:39M60991
24524JOEL FIGUEIREDO01:34:0201:33:55M2339ESGRAVULHAS TEAM15
25526ALVARO BAPTISTA01:34:2001:34:07M233916
26512NUNO VERDASCA01:34:2901:34:23M4549ADA Desnível1
27556JORGE PEREIRA01:34:3101:34:23M4549Porto Sentido Runners2
28581PAULO MARQUES01:35:1901:35:13M0022CAOH2
29532ANA SABORANO01:36:1001:36:01F2339ACT - Atletismo Clube da Tocha2
30515FRANCISCO DE SOUSA01:36:3501:36:19M2339RGym racing team17
31535JOÃO PAULO AMARO01:36:3601:36:22M233918
32530JOSÉ PERES01:37:0501:36:57M5054C. B. Viseu Running Team1
33529SÍLVIA COELHO01:37:0601:36:59F4549C. B. Viseu Running Team1
34533RAQUEL MENDES01:37:5201:37:46F5054C. B. Viseu Running Team1
35557VASCO LUXO01:38:0801:37:59M4549Porto Sentido Runners3
36531CRISTIANO MALHÃO01:38:3001:38:20M4044ACT - Atletismo Clube da Tocha5
37545RUBEN COSTA01:39:2301:39:10M4044moloni running team6
38565MÁRCIO HENRIQUES01:43:1101:42:57M2339INDIVIDUAL19
39541VIDAL FERREIRA01:43:1301:43:13M4044NÃO SEI...7
40570SANDRO SILVA01:43:2901:43:16M4044INDIVIDUAL8
41567SOPHIA HANEKOM01:43:4101:43:41F5559INDIVIDUAL1
42547EDUARDO AMARAL01:46:4001:46:28M2339moloni running team20
43509ROGERIO MORAIS01:47:0001:47:00M5559ADA Desnível3
44551ANTONIO DIAS01:48:1501:48:00M6099MATILHA RADICAL2
45546MARIA SILVA01:48:5601:48:43M2339moloni running team21
46501NUNO VEIGA01:50:3701:50:23M4549Aldeia das Dez4
47560ALEXANDRA MAIA01:51:0901:51:02F4044Grvilaverdense1
48559DANIEL GOMES01:52:0601:51:51M45495
49554MIGUEL PEREIRA01:53:2801:53:19M4044Porto Sentido Runners9
50523HUGO LOPES01:54:4801:54:35M2339ADM TRAILTEAM22
51555ELIZABETE LOUREIRO01:55:0601:54:58F4549Porto Sentido Runners2
52553SANDRA MASCARENHAS01:55:0601:54:57F4549Porto Sentido Runners3
53513MARCO RIBEIRO01:55:5501:55:43M2339ARCD Venda da Luisa23
54510CATHERINE DE FREITAS01:58:2101:58:14F5559ADA Desnível2
55500RITA BENTES02:04:2502:04:07F2339Perceladense3
56527IRENE FERNANDES02:04:2702:04:27F23394
57511SUSANA GOMES02:08:0802:08:01F4044ADA Desnível2
58542ANTÓNIO MOURA02:12:2002:12:10M6099VALE FIGUEIRA3
59571LIDIA FRANCISCO02:14:0002:13:53F5054C. B. Viseu Running Team2
60537MARIA PEDRO02:17:3602:17:22F2339RGym racing team5
61539ANA GONÇALVES02:17:3702:17:24F4044RGym racing team3
62536RICARDO DIAS02:17:3802:17:22M4044RGym racing team10
63517RITA FACHADAS02:25:1202:25:01F23396
6419NUNO BOTELHO02:39:0902:38:53M4044GEORUNNERS11
65503CATARINA REBELO02:39:1002:39:10F2339GEORUNNERS7
66504PATRICIA BRANCO02:39:1002:38:53F4549GEORUNNERS4
67507ROSANGELA LOURENÇON02:39:1002:38:52F4549GEORUNNERS5
6818LÚCIA VENTURA02:39:1102:38:54F4044GEORUNNERS4
69516EDUARDO GONÇALVES FERREIRA02:42:0202:42:02M2339RGym racing team24
70506CRISTINA REZENDE02:52:5002:52:33F4044GEORUNNERS5
71505DIOGO GODINHO02:52:5002:52:32M2339Georunnes25
72576LUZ COSTA02:52:5202:52:36F4549IDIVIDUAL6